Bo Bo, Indiana
Current Conditions -  °F | °C
As of 6:54 PM on Friday 24 Oct 2014 (Local Time) from KFWA Reporting Station
Broken Clouds Broken Clouds  
Wind Chill: 58°   Ceiling: 4300
Heat Index: 58°   Visibility: 10mi
Dew Point: 50°   Wind: 5mph
Humidity: 75%   Direction: 240°WSW
Pressure: 30.01"   Gusts: NA
Location:  40.8317°N, 84.9398°W
Report Text: KFWA 242254Z 24004KT 10SM SCT036 BKN043 BKN250 14/10 A3001 RMK AO2 SLP165 T01440100
Loading
Personal Weather Stations






























Interactive Weather Map
Tropical Storm Tracking
New forecast layout! Learn more

10-Day Weather Forecast

Advertisements
Track Severe Weather on mobile